sensor_id;sensor_type;location;lat;lon;timestamp;temperature;humidity
20416;DHT22;10367;52.202;5.996;2022-07-23T00:02:04;15.00;99.90
20416;DHT22;10367;52.202;5.996;2022-07-23T00:04:34;15.10;99.90
20416;DHT22;10367;52.202;5.996;2022-07-23T00:07:04;15.10;99.90
20416;DHT22;10367;52.202;5.996;2022-07-23T00:09:32;15.00;99.90
20416;DHT22;10367;52.202;5.996;2022-07-23T00:12:01;15.00;99.90
20416;DHT22;10367;52.202;5.996;2022-07-23T00:14:29;15.00;99.90
20416;DHT22;10367;52.202;5.996;2022-07-23T00:16:58;14.90;99.90
20416;DHT22;10367;52.202;5.996;2022-07-23T00:19:27;14.90;99.90
20416;DHT22;10367;52.202;5.996;2022-07-23T00:21:56;14.90;99.90
20416;DHT22;10367;52.202;5.996;2022-07-23T00:24:26;14.80;99.90
20416;DHT22;10367;52.202;5.996;2022-07-23T00:26:54;14.80;99.90
20416;DHT22;10367;52.202;5.996;2022-07-23T00:29:23;14.60;99.90
20416;DHT22;10367;52.202;5.996;2022-07-23T00:31:52;14.70;99.90
20416;DHT22;10367;52.202;5.996;2022-07-23T00:34:20;14.70;99.90
20416;DHT22;10367;52.202;5.996;2022-07-23T00:36:49;14.70;99.90
20416;DHT22;10367;52.202;5.996;2022-07-23T00:39:18;14.60;99.90
20416;DHT22;10367;52.202;5.996;2022-07-23T00:41:48;14.60;99.90
20416;DHT22;10367;52.202;5.996;2022-07-23T00:44:20;14.50;99.90
20416;DHT22;10367;52.202;5.996;2022-07-23T00:46:50;14.60;99.90
20416;DHT22;10367;52.202;5.996;2022-07-23T00:49:21;14.50;99.90
20416;DHT22;10367;52.202;5.996;2022-07-23T00:51:50;14.50;99.90
20416;DHT22;10367;52.202;5.996;2022-07-23T00:54:19;14.50;99.90
20416;DHT22;10367;52.202;5.996;2022-07-23T00:56:49;14.40;99.90
20416;DHT22;10367;52.202;5.996;2022-07-23T00:59:18;14.40;99.90
20416;DHT22;10367;52.202;5.996;2022-07-23T01:01:47;14.40;99.90
20416;DHT22;10367;52.202;5.996;2022-07-23T01:04:16;14.40;99.90
20416;DHT22;10367;52.202;5.996;2022-07-23T01:06:46;14.40;99.90
20416;DHT22;10367;52.202;5.996;2022-07-23T01:09:15;14.50;99.90
20416;DHT22;10367;52.202;5.996;2022-07-23T01:11:43;14.50;99.90
20416;DHT22;10367;52.202;5.996;2022-07-23T01:14:15;14.50;99.90
20416;DHT22;10367;52.202;5.996;2022-07-23T01:16:45;14.50;99.90
20416;DHT22;10367;52.202;5.996;2022-07-23T01:19:15;14.40;99.90
20416;DHT22;10367;52.202;5.996;2022-07-23T01:21:46;14.40;99.90
20416;DHT22;10367;52.202;5.996;2022-07-23T01:24:17;14.40;99.90
20416;DHT22;10367;52.202;5.996;2022-07-23T01:26:48;14.40;99.90
20416;DHT22;10367;52.202;5.996;2022-07-23T01:29:17;14.20;99.90
20416;DHT22;10367;52.202;5.996;2022-07-23T01:31:47;14.10;99.90
20416;DHT22;10367;52.202;5.996;2022-07-23T01:34:16;14.20;99.90
20416;DHT22;10367;52.202;5.996;2022-07-23T01:36:44;14.20;99.90
20416;DHT22;10367;52.202;5.996;2022-07-23T01:39:15;14.10;99.90
20416;DHT22;10367;52.202;5.996;2022-07-23T01:41:45;14.10;99.90
20416;DHT22;10367;52.202;5.996;2022-07-23T01:44:17;14.10;99.90
20416;DHT22;10367;52.202;5.996;2022-07-23T01:46:46;14.00;99.90
20416;DHT22;10367;52.202;5.996;2022-07-23T01:49:15;14.00;99.90
20416;DHT22;10367;52.202;5.996;2022-07-23T01:51:43;13.90;99.90
20416;DHT22;10367;52.202;5.996;2022-07-23T01:54:28;13.80;99.90
20416;DHT22;10367;52.202;5.996;2022-07-23T01:56:57;13.90;99.90
20416;DHT22;10367;52.202;5.996;2022-07-23T01:59:26;13.80;99.90
20416;DHT22;10367;52.202;5.996;2022-07-23T02:01:56;13.80;99.90
20416;DHT22;10367;52.202;5.996;2022-07-23T02:04:25;13.80;99.90
20416;DHT22;10367;52.202;5.996;2022-07-23T02:06:54;13.80;99.90
20416;DHT22;10367;52.202;5.996;2022-07-23T02:09:22;13.90;99.90
20416;DHT22;10367;52.202;5.996;2022-07-23T02:11:53;13.90;99.90
20416;DHT22;10367;52.202;5.996;2022-07-23T02:14:21;13.80;99.90
20416;DHT22;10367;52.202;5.996;2022-07-23T02:16:50;13.80;99.90
20416;DHT22;10367;52.202;5.996;2022-07-23T02:19:19;13.80;99.90
20416;DHT22;10367;52.202;5.996;2022-07-23T02:21:48;13.90;99.90
20416;DHT22;10367;52.202;5.996;2022-07-23T02:24:18;13.80;99.90
20416;DHT22;10367;52.202;5.996;2022-07-23T02:26:46;13.90;99.90
20416;DHT22;10367;52.202;5.996;2022-07-23T02:29:16;13.80;99.90
20416;DHT22;10367;52.202;5.996;2022-07-23T02:31:45;13.80;99.90
20416;DHT22;10367;52.202;5.996;2022-07-23T02:34:14;13.80;99.90
20416;DHT22;10367;52.202;5.996;2022-07-23T02:36:42;13.80;99.90
20416;DHT22;10367;52.202;5.996;2022-07-23T02:39:11;13.60;99.90
20416;DHT22;10367;52.202;5.996;2022-07-23T02:41:41;13.60;99.90
20416;DHT22;10367;52.202;5.996;2022-07-23T02:44:10;13.60;99.90
20416;DHT22;10367;52.202;5.996;2022-07-23T02:46:40;13.60;99.90
20416;DHT22;10367;52.202;5.996;2022-07-23T02:49:09;13.60;99.90
20416;DHT22;10367;52.202;5.996;2022-07-23T02:51:37;13.60;99.90
20416;DHT22;10367;52.202;5.996;2022-07-23T02:54:06;13.70;99.90
20416;DHT22;10367;52.202;5.996;2022-07-23T02:56:35;13.70;99.90
20416;DHT22;10367;52.202;5.996;2022-07-23T02:59:03;13.60;99.90
20416;DHT22;10367;52.202;5.996;2022-07-23T03:01:32;13.60;99.90
20416;DHT22;10367;52.202;5.996;2022-07-23T03:04:02;13.60;99.90
20416;DHT22;10367;52.202;5.996;2022-07-23T03:06:31;13.50;99.90
20416;DHT22;10367;52.202;5.996;2022-07-23T03:09:00;13.40;99.90
20416;DHT22;10367;52.202;5.996;2022-07-23T03:11:30;13.30;99.90
20416;DHT22;10367;52.202;5.996;2022-07-23T03:13:58;13.40;99.90
20416;DHT22;10367;52.202;5.996;2022-07-23T03:16:27;13.30;99.90
20416;DHT22;10367;52.202;5.996;2022-07-23T03:18:56;13.20;99.90
20416;DHT22;10367;52.202;5.996;2022-07-23T03:21:26;13.20;99.90
20416;DHT22;10367;52.202;5.996;2022-07-23T03:23:55;13.10;99.90
20416;DHT22;10367;52.202;5.996;2022-07-23T03:26:24;13.10;99.90
20416;DHT22;10367;52.202;5.996;2022-07-23T03:28:53;13.10;99.90
20416;DHT22;10367;52.202;5.996;2022-07-23T03:31:21;13.10;99.90
20416;DHT22;10367;52.202;5.996;2022-07-23T03:33:50;13.20;99.90
20416;DHT22;10367;52.202;5.996;2022-07-23T03:36:19;13.20;99.90
20416;DHT22;10367;52.202;5.996;2022-07-23T03:38:49;13.20;99.90
20416;DHT22;10367;52.202;5.996;2022-07-23T03:41:18;13.20;99.90
20416;DHT22;10367;52.202;5.996;2022-07-23T03:43:47;13.20;99.90
20416;DHT22;10367;52.202;5.996;2022-07-23T03:46:15;13.20;99.90
20416;DHT22;10367;52.202;5.996;2022-07-23T03:48:44;13.20;99.90
20416;DHT22;10367;52.202;5.996;2022-07-23T03:51:13;13.30;99.90
20416;DHT22;10367;52.202;5.996;2022-07-23T03:53:41;13.40;99.90
20416;DHT22;10367;52.202;5.996;2022-07-23T03:56:11;13.30;99.90
20416;DHT22;10367;52.202;5.996;2022-07-23T03:58:40;13.30;99.90
20416;DHT22;10367;52.202;5.996;2022-07-23T04:01:09;13.20;99.90
20416;DHT22;10367;52.202;5.996;2022-07-23T04:03:37;13.10;99.90
20416;DHT22;10367;52.202;5.996;2022-07-23T04:06:07;13.10;99.90
20416;DHT22;10367;52.202;5.996;2022-07-23T04:08:35;13.10;99.90
20416;DHT22;10367;52.202;5.996;2022-07-23T04:11:04;13.10;99.90
20416;DHT22;10367;52.202;5.996;2022-07-23T04:13:34;13.10;99.90
20416;DHT22;10367;52.202;5.996;2022-07-23T04:16:04;13.20;99.90
20416;DHT22;10367;52.202;5.996;2022-07-23T04:18:34;13.20;99.90
20416;DHT22;10367;52.202;5.996;2022-07-23T04:21:02;13.20;99.90
20416;DHT22;10367;52.202;5.996;2022-07-23T04:23:31;13.20;99.90
20416;DHT22;10367;52.202;5.996;2022-07-23T04:26:00;13.30;99.90
20416;DHT22;10367;52.202;5.996;2022-07-23T04:28:28;13.40;99.90
20416;DHT22;10367;52.202;5.996;2022-07-23T04:30:59;13.40;99.90
20416;DHT22;10367;52.202;5.996;2022-07-23T04:33:28;13.40;99.90
20416;DHT22;10367;52.202;5.996;2022-07-23T04:35:56;13.30;99.90
20416;DHT22;10367;52.202;5.996;2022-07-23T04:38:25;13.40;99.90
20416;DHT22;10367;52.202;5.996;2022-07-23T04:40:54;13.50;99.90
20416;DHT22;10367;52.202;5.996;2022-07-23T04:43:22;13.50;99.90
20416;DHT22;10367;52.202;5.996;2022-07-23T04:45:51;13.60;99.90
20416;DHT22;10367;52.202;5.996;2022-07-23T04:48:21;13.60;99.90
20416;DHT22;10367;52.202;5.996;2022-07-23T04:50:50;13.70;99.90
20416;DHT22;10367;52.202;5.996;2022-07-23T04:53:18;13.60;99.90
20416;DHT22;10367;52.202;5.996;2022-07-23T04:55:47;13.60;99.90
20416;DHT22;10367;52.202;5.996;2022-07-23T04:58:16;13.60;99.90
20416;DHT22;10367;52.202;5.996;2022-07-23T05:00:44;13.70;99.90
20416;DHT22;10367;52.202;5.996;2022-07-23T05:03:13;13.80;99.90
20416;DHT22;10367;52.202;5.996;2022-07-23T05:05:43;13.80;99.90
20416;DHT22;10367;52.202;5.996;2022-07-23T05:08:12;13.80;99.90
20416;DHT22;10367;52.202;5.996;2022-07-23T05:10:40;13.80;99.90
20416;DHT22;10367;52.202;5.996;2022-07-23T05:13:09;13.90;99.90
20416;DHT22;10367;52.202;5.996;2022-07-23T05:15:38;13.90;99.90
20416;DHT22;10367;52.202;5.996;2022-07-23T05:18:06;13.90;99.90
20416;DHT22;10367;52.202;5.996;2022-07-23T05:20:35;14.00;99.90
20416;DHT22;10367;52.202;5.996;2022-07-23T05:23:06;14.10;99.90
20416;DHT22;10367;52.202;5.996;2022-07-23T05:25:35;14.10;99.90
20416;DHT22;10367;52.202;5.996;2022-07-23T05:28:03;14.20;99.90
20416;DHT22;10367;52.202;5.996;2022-07-23T05:30:32;14.20;99.90
20416;DHT22;10367;52.202;5.996;2022-07-23T05:33:01;14.20;99.90
20416;DHT22;10367;52.202;5.996;2022-07-23T05:35:29;14.20;99.90
20416;DHT22;10367;52.202;5.996;2022-07-23T05:37:58;14.30;99.90
20416;DHT22;10367;52.202;5.996;2022-07-23T05:40:28;14.30;99.90
20416;DHT22;10367;52.202;5.996;2022-07-23T05:42:57;14.40;99.90
20416;DHT22;10367;52.202;5.996;2022-07-23T05:45:26;14.50;99.90
20416;DHT22;10367;52.202;5.996;2022-07-23T05:47:55;14.50;99.90
20416;DHT22;10367;52.202;5.996;2022-07-23T05:50:24;14.60;99.90
20416;DHT22;10367;52.202;5.996;2022-07-23T05:52:52;14.60;99.90
20416;DHT22;10367;52.202;5.996;2022-07-23T05:55:21;14.70;99.90
20416;DHT22;10367;52.202;5.996;2022-07-23T05:57:51;14.70;99.90
20416;DHT22;10367;52.202;5.996;2022-07-23T06:00:20;14.80;99.90
20416;DHT22;10367;52.202;5.996;2022-07-23T06:02:48;14.90;99.90
20416;DHT22;10367;52.202;5.996;2022-07-23T06:05:22;15.00;99.90
20416;DHT22;10367;52.202;5.996;2022-07-23T06:07:51;15.00;99.90
20416;DHT22;10367;52.202;5.996;2022-07-23T06:10:20;15.10;99.90
20416;DHT22;10367;52.202;5.996;2022-07-23T06:12:50;15.10;99.90
20416;DHT22;10367;52.202;5.996;2022-07-23T06:15:21;15.20;99.90
20416;DHT22;10367;52.202;5.996;2022-07-23T06:17:50;15.20;99.90
20416;DHT22;10367;52.202;5.996;2022-07-23T06:20:18;15.30;99.90
20416;DHT22;10367;52.202;5.996;2022-07-23T06:22:47;15.40;99.90
20416;DHT22;10367;52.202;5.996;2022-07-23T06:25:16;15.40;99.90
20416;DHT22;10367;52.202;5.996;2022-07-23T06:27:46;15.50;99.90
20416;DHT22;10367;52.202;5.996;2022-07-23T06:30:16;15.60;99.90
20416;DHT22;10367;52.202;5.996;2022-07-23T06:32:46;15.60;99.90
20416;DHT22;10367;52.202;5.996;2022-07-23T06:35:15;15.60;99.90
20416;DHT22;10367;52.202;5.996;2022-07-23T06:37:45;15.70;99.90
20416;DHT22;10367;52.202;5.996;2022-07-23T06:40:14;15.70;99.90
20416;DHT22;10367;52.202;5.996;2022-07-23T06:42:43;15.80;99.90
20416;DHT22;10367;52.202;5.996;2022-07-23T06:45:12;15.90;99.90
20416;DHT22;10367;52.202;5.996;2022-07-23T06:47:42;16.00;99.90
20416;DHT22;10367;52.202;5.996;2022-07-23T06:50:11;16.10;99.90
20416;DHT22;10367;52.202;5.996;2022-07-23T06:52:39;16.20;99.90
20416;DHT22;10367;52.202;5.996;2022-07-23T06:55:09;16.20;99.90
20416;DHT22;10367;52.202;5.996;2022-07-23T06:57:38;16.20;99.90
20416;DHT22;10367;52.202;5.996;2022-07-23T07:00:07;16.30;99.90
20416;DHT22;10367;52.202;5.996;2022-07-23T07:02:36;16.40;99.90
20416;DHT22;10367;52.202;5.996;2022-07-23T07:05:07;16.50;99.90
20416;DHT22;10367;52.202;5.996;2022-07-23T07:07:36;16.50;99.90
20416;DHT22;10367;52.202;5.996;2022-07-23T07:10:05;16.60;99.90
20416;DHT22;10367;52.202;5.996;2022-07-23T07:12:41;16.60;99.90
20416;DHT22;10367;52.202;5.996;2022-07-23T07:15:10;16.80;99.90
20416;DHT22;10367;52.202;5.996;2022-07-23T07:17:39;16.90;99.90
20416;DHT22;10367;52.202;5.996;2022-07-23T07:20:11;17.00;99.90
20416;DHT22;10367;52.202;5.996;2022-07-23T07:22:40;17.10;99.90
20416;DHT22;10367;52.202;5.996;2022-07-23T07:25:09;17.10;99.90
20416;DHT22;10367;52.202;5.996;2022-07-23T07:27:37;17.10;99.90
20416;DHT22;10367;52.202;5.996;2022-07-23T07:30:07;17.20;99.90
20416;DHT22;10367;52.202;5.996;2022-07-23T07:32:37;17.30;99.90
20416;DHT22;10367;52.202;5.996;2022-07-23T07:35:24;17.40;99.90
20416;DHT22;10367;52.202;5.996;2022-07-23T07:37:53;17.60;99.90
20416;DHT22;10367;52.202;5.996;2022-07-23T07:40:22;17.70;99.90
20416;DHT22;10367;52.202;5.996;2022-07-23T07:42:58;17.60;99.90
20416;DHT22;10367;52.202;5.996;2022-07-23T07:45:26;17.70;99.90
20416;DHT22;10367;52.202;5.996;2022-07-23T07:47:55;17.80;99.90
20416;DHT22;10367;52.202;5.996;2022-07-23T07:50:25;17.90;99.90
20416;DHT22;10367;52.202;5.996;2022-07-23T07:52:54;18.00;99.90
20416;DHT22;10367;52.202;5.996;2022-07-23T07:55:23;18.10;99.90
20416;DHT22;10367;52.202;5.996;2022-07-23T07:57:52;18.30;99.90
20416;DHT22;10367;52.202;5.996;2022-07-23T08:00:21;18.40;99.90
20416;DHT22;10367;52.202;5.996;2022-07-23T08:02:51;18.40;99.90
20416;DHT22;10367;52.202;5.996;2022-07-23T08:05:21;18.30;99.90
20416;DHT22;10367;52.202;5.996;2022-07-23T08:07:57;18.40;99.90
20416;DHT22;10367;52.202;5.996;2022-07-23T08:10:27;18.40;99.90
20416;DHT22;10367;52.202;5.996;2022-07-23T08:12:57;18.70;99.90
20416;DHT22;10367;52.202;5.996;2022-07-23T08:15:29;18.90;99.90
20416;DHT22;10367;52.202;5.996;2022-07-23T08:17:58;18.90;99.90
20416;DHT22;10367;52.202;5.996;2022-07-23T08:20:27;19.10;99.90
20416;DHT22;10367;52.202;5.996;2022-07-23T08:22:59;19.30;99.90
20416;DHT22;10367;52.202;5.996;2022-07-23T08:25:29;19.30;99.90
20416;DHT22;10367;52.202;5.996;2022-07-23T08:27:59;19.40;99.90
20416;DHT22;10367;52.202;5.996;2022-07-23T08:30:29;19.40;99.90
20416;DHT22;10367;52.202;5.996;2022-07-23T08:32:59;19.50;99.90
20416;DHT22;10367;52.202;5.996;2022-07-23T08:35:30;19.90;99.90
20416;DHT22;10367;52.202;5.996;2022-07-23T08:38:02;20.10;99.90
20416;DHT22;10367;52.202;5.996;2022-07-23T08:40:33;20.20;99.90
20416;DHT22;10367;52.202;5.996;2022-07-23T08:43:11;20.30;99.90
20416;DHT22;10367;52.202;5.996;2022-07-23T08:45:41;20.40;99.90
20416;DHT22;10367;52.202;5.996;2022-07-23T08:48:13;20.40;99.90
20416;DHT22;10367;52.202;5.996;2022-07-23T08:50:45;20.40;99.90
20416;DHT22;10367;52.202;5.996;2022-07-23T08:53:17;20.30;99.90
20416;DHT22;10367;52.202;5.996;2022-07-23T08:55:47;20.30;99.90
20416;DHT22;10367;52.202;5.996;2022-07-23T08:58:16;20.50;99.90
20416;DHT22;10367;52.202;5.996;2022-07-23T09:00:48;20.70;99.90
20416;DHT22;10367;52.202;5.996;2022-07-23T09:03:19;21.10;99.90
20416;DHT22;10367;52.202;5.996;2022-07-23T09:05:49;21.20;99.90
20416;DHT22;10367;52.202;5.996;2022-07-23T09:08:21;21.00;99.90
20416;DHT22;10367;52.202;5.996;2022-07-23T09:10:52;20.80;99.90
20416;DHT22;10367;52.202;5.996;2022-07-23T09:13:31;20.50;99.90
20416;DHT22;10367;52.202;5.996;2022-07-23T09:16:02;20.20;99.90
20416;DHT22;10367;52.202;5.996;2022-07-23T09:18:33;20.30;99.90
20416;DHT22;10367;52.202;5.996;2022-07-23T09:21:06;20.50;99.90
20416;DHT22;10367;52.202;5.996;2022-07-23T09:23:41;20.80;99.90
20416;DHT22;10367;52.202;5.996;2022-07-23T09:26:22;21.00;99.90
20416;DHT22;10367;52.202;5.996;2022-07-23T09:28:53;21.20;99.90
20416;DHT22;10367;52.202;5.996;2022-07-23T09:31:24;21.30;99.90
20416;DHT22;10367;52.202;5.996;2022-07-23T09:34:06;21.40;99.90
20416;DHT22;10367;52.202;5.996;2022-07-23T09:36:35;21.40;99.90
20416;DHT22;10367;52.202;5.996;2022-07-23T09:39:07;21.30;99.90
20416;DHT22;10367;52.202;5.996;2022-07-23T09:41:39;21.30;99.90
20416;DHT22;10367;52.202;5.996;2022-07-23T09:44:13;21.70;99.90
20416;DHT22;10367;52.202;5.996;2022-07-23T09:46:44;21.50;99.90
20416;DHT22;10367;52.202;5.996;2022-07-23T09:49:16;21.10;99.90
20416;DHT22;10367;52.202;5.996;2022-07-23T09:51:46;20.90;99.90
20416;DHT22;10367;52.202;5.996;2022-07-23T09:54:34;21.00;99.90
20416;DHT22;10367;52.202;5.996;2022-07-23T09:57:06;21.40;99.90
20416;DHT22;10367;52.202;5.996;2022-07-23T09:59:38;21.80;99.90
20416;DHT22;10367;52.202;5.996;2022-07-23T10:02:07;22.20;99.90
20416;DHT22;10367;52.202;5.996;2022-07-23T10:04:36;22.50;99.90
20416;DHT22;10367;52.202;5.996;2022-07-23T10:07:06;22.80;99.90
20416;DHT22;10367;52.202;5.996;2022-07-23T10:09:39;22.70;99.90
20416;DHT22;10367;52.202;5.996;2022-07-23T10:12:10;22.40;99.90
20416;DHT22;10367;52.202;5.996;2022-07-23T10:15:11;22.50;99.90
20416;DHT22;10367;52.202;5.996;2022-07-23T10:17:40;22.70;99.90
20416;DHT22;10367;52.202;5.996;2022-07-23T10:20:08;22.90;99.90
20416;DHT22;10367;52.202;5.996;2022-07-23T10:22:40;22.90;99.90
20416;DHT22;10367;52.202;5.996;2022-07-23T10:25:17;22.70;99.90
20416;DHT22;10367;52.202;5.996;2022-07-23T10:28:04;22.80;99.90
20416;DHT22;10367;52.202;5.996;2022-07-23T10:30:39;22.90;99.90
20416;DHT22;10367;52.202;5.996;2022-07-23T10:33:26;23.10;99.90
20416;DHT22;10367;52.202;5.996;2022-07-23T10:36:04;23.10;99.90
20416;DHT22;10367;52.202;5.996;2022-07-23T10:38:40;23.60;99.90
20416;DHT22;10367;52.202;5.996;2022-07-23T10:41:12;23.70;99.90
20416;DHT22;10367;52.202;5.996;2022-07-23T10:43:41;23.80;99.90
20416;DHT22;10367;52.202;5.996;2022-07-23T10:46:27;24.20;99.90
20416;DHT22;10367;52.202;5.996;2022-07-23T10:49:21;23.80;99.90
20416;DHT22;10367;52.202;5.996;2022-07-23T10:52:19;23.70;99.90
20416;DHT22;10367;52.202;5.996;2022-07-23T10:54:49;23.30;99.90
20416;DHT22;10367;52.202;5.996;2022-07-23T10:57:21;23.30;99.90
20416;DHT22;10367;52.202;5.996;2022-07-23T11:00:13;23.30;99.90
20416;DHT22;10367;52.202;5.996;2022-07-23T11:02:44;23.40;99.90
20416;DHT22;10367;52.202;5.996;2022-07-23T11:05:15;23.60;99.90
20416;DHT22;10367;52.202;5.996;2022-07-23T11:10:54;24.10;99.90
20416;DHT22;10367;52.202;5.996;2022-07-23T11:16:23;24.60;99.90
20416;DHT22;10367;52.202;5.996;2022-07-23T11:18:58;24.70;99.90
20416;DHT22;10367;52.202;5.996;2022-07-23T11:21:47;24.90;99.90
20416;DHT22;10367;52.202;5.996;2022-07-23T11:24:20;25.20;99.90
20416;DHT22;10367;52.202;5.996;2022-07-23T11:27:02;25.00;99.90
20416;DHT22;10367;52.202;5.996;2022-07-23T11:29:49;24.90;99.90
20416;DHT22;10367;52.202;5.996;2022-07-23T11:32:28;25.20;99.90
20416;DHT22;10367;52.202;5.996;2022-07-23T11:34:57;25.50;99.40
20416;DHT22;10367;52.202;5.996;2022-07-23T11:37:33;25.40;99.40
20416;DHT22;10367;52.202;5.996;2022-07-23T11:40:06;25.60;98.70
20416;DHT22;10367;52.202;5.996;2022-07-23T11:42:39;25.80;98.00
20416;DHT22;10367;52.202;5.996;2022-07-23T11:45:09;25.90;97.60
20416;DHT22;10367;52.202;5.996;2022-07-23T11:47:38;26.00;97.10
20416;DHT22;10367;52.202;5.996;2022-07-23T11:50:07;25.80;96.50
20416;DHT22;10367;52.202;5.996;2022-07-23T11:52:36;25.70;96.10
20416;DHT22;10367;52.202;5.996;2022-07-23T11:55:06;25.80;96.00
20416;DHT22;10367;52.202;5.996;2022-07-23T11:57:37;25.60;95.40
20416;DHT22;10367;52.202;5.996;2022-07-23T12:00:10;25.60;94.90
20416;DHT22;10367;52.202;5.996;2022-07-23T12:02:41;25.90;94.40
20416;DHT22;10367;52.202;5.996;2022-07-23T12:05:12;26.10;93.90
20416;DHT22;10367;52.202;5.996;2022-07-23T12:07:43;26.10;93.60
20416;DHT22;10367;52.202;5.996;2022-07-23T12:10:14;26.60;93.00
20416;DHT22;10367;52.202;5.996;2022-07-23T12:12:44;26.90;91.70
20416;DHT22;10367;52.202;5.996;2022-07-23T12:15:15;27.00;90.90
20416;DHT22;10367;52.202;5.996;2022-07-23T12:17:46;27.30;90.60
20416;DHT22;10367;52.202;5.996;2022-07-23T12:20:20;28.00;89.30
20416;DHT22;10367;52.202;5.996;2022-07-23T12:22:52;28.00;88.20
20416;DHT22;10367;52.202;5.996;2022-07-23T12:25:23;27.70;88.10
20416;DHT22;10367;52.202;5.996;2022-07-23T12:28:00;27.70;87.20
20416;DHT22;10367;52.202;5.996;2022-07-23T12:30:32;27.80;86.50
20416;DHT22;10367;52.202;5.996;2022-07-23T12:33:02;28.30;85.40
20416;DHT22;10367;52.202;5.996;2022-07-23T12:35:37;28.00;84.70
20416;DHT22;10367;52.202;5.996;2022-07-23T12:38:09;28.10;84.90
20416;DHT22;10367;52.202;5.996;2022-07-23T12:40:43;28.30;84.40
20416;DHT22;10367;52.202;5.996;2022-07-23T12:43:19;28.40;84.10
20416;DHT22;10367;52.202;5.996;2022-07-23T12:45:51;28.10;83.40
20416;DHT22;10367;52.202;5.996;2022-07-23T12:48:25;27.80;83.40
20416;DHT22;10367;52.202;5.996;2022-07-23T12:50:56;27.50;83.80
20416;DHT22;10367;52.202;5.996;2022-07-23T12:53:28;27.20;84.00
20416;DHT22;10367;52.202;5.996;2022-07-23T12:56:03;26.90;84.60
20416;DHT22;10367;52.202;5.996;2022-07-23T12:58:43;26.80;84.50
20416;DHT22;10367;52.202;5.996;2022-07-23T13:01:29;27.10;83.40
20416;DHT22;10367;52.202;5.996;2022-07-23T13:04:02;26.60;83.10
20416;DHT22;10367;52.202;5.996;2022-07-23T13:06:40;26.50;83.80
20416;DHT22;10367;52.202;5.996;2022-07-23T13:09:11;27.00;82.80
20416;DHT22;10367;52.202;5.996;2022-07-23T13:11:42;26.70;82.30
20416;DHT22;10367;52.202;5.996;2022-07-23T13:14:11;26.50;82.90
20416;DHT22;10367;52.202;5.996;2022-07-23T13:16:43;26.50;82.50
20416;DHT22;10367;52.202;5.996;2022-07-23T13:19:12;26.30;82.90
20416;DHT22;10367;52.202;5.996;2022-07-23T13:21:41;26.00;83.30
20416;DHT22;10367;52.202;5.996;2022-07-23T13:24:11;26.20;83.30
20416;DHT22;10367;52.202;5.996;2022-07-23T13:26:41;26.50;82.20
20416;DHT22;10367;52.202;5.996;2022-07-23T13:29:10;26.60;81.90
20416;DHT22;10367;52.202;5.996;2022-07-23T13:31:39;26.30;82.30
20416;DHT22;10367;52.202;5.996;2022-07-23T13:34:09;25.90;83.10
20416;DHT22;10367;52.202;5.996;2022-07-23T13:36:37;25.90;83.20
20416;DHT22;10367;52.202;5.996;2022-07-23T13:39:06;26.10;83.00
20416;DHT22;10367;52.202;5.996;2022-07-23T13:41:36;26.30;82.90
20416;DHT22;10367;52.202;5.996;2022-07-23T13:44:05;26.90;81.40
20416;DHT22;10367;52.202;5.996;2022-07-23T13:46:34;27.70;79.60
20416;DHT22;10367;52.202;5.996;2022-07-23T13:49:03;27.90;78.30
20416;DHT22;10367;52.202;5.996;2022-07-23T13:51:34;27.80;77.90
20416;DHT22;10367;52.202;5.996;2022-07-23T13:54:03;27.90;77.30
20416;DHT22;10367;52.202;5.996;2022-07-23T13:56:35;28.20;77.60
20416;DHT22;10367;52.202;5.996;2022-07-23T13:59:04;29.10;76.30
20416;DHT22;10367;52.202;5.996;2022-07-23T14:01:34;29.30;75.00
20416;DHT22;10367;52.202;5.996;2022-07-23T14:04:22;29.50;74.90
20416;DHT22;10367;52.202;5.996;2022-07-23T14:06:52;29.60;74.30
20416;DHT22;10367;52.202;5.996;2022-07-23T14:09:22;29.50;74.70
20416;DHT22;10367;52.202;5.996;2022-07-23T14:11:52;28.80;75.50
20416;DHT22;10367;52.202;5.996;2022-07-23T14:14:21;28.50;75.90
20416;DHT22;10367;52.202;5.996;2022-07-23T14:16:50;28.20;76.00
20416;DHT22;10367;52.202;5.996;2022-07-23T14:19:19;28.20;76.00
20416;DHT22;10367;52.202;5.996;2022-07-23T14:21:48;28.60;75.40
20416;DHT22;10367;52.202;5.996;2022-07-23T14:24:19;29.00;74.40
20416;DHT22;10367;52.202;5.996;2022-07-23T14:26:48;29.40;73.30
20416;DHT22;10367;52.202;5.996;2022-07-23T14:29:17;29.00;73.10
20416;DHT22;10367;52.202;5.996;2022-07-23T14:31:46;28.30;74.50
20416;DHT22;10367;52.202;5.996;2022-07-23T14:34:15;27.90;75.00
20416;DHT22;10367;52.202;5.996;2022-07-23T14:36:54;27.70;74.70
20416;DHT22;10367;52.202;5.996;2022-07-23T14:39:24;27.10;75.50
20416;DHT22;10367;52.202;5.996;2022-07-23T14:41:53;27.30;75.30
20416;DHT22;10367;52.202;5.996;2022-07-23T14:44:22;27.60;74.50
20416;DHT22;10367;52.202;5.996;2022-07-23T14:46:51;28.00;73.60
20416;DHT22;10367;52.202;5.996;2022-07-23T14:49:20;28.10;73.20
20416;DHT22;10367;52.202;5.996;2022-07-23T14:51:53;27.80;73.30
20416;DHT22;10367;52.202;5.996;2022-07-23T14:54:24;27.30;74.30
20416;DHT22;10367;52.202;5.996;2022-07-23T14:56:55;27.00;75.30
20416;DHT22;10367;52.202;5.996;2022-07-23T14:59:24;26.90;75.80
20416;DHT22;10367;52.202;5.996;2022-07-23T15:01:53;26.90;75.80
20416;DHT22;10367;52.202;5.996;2022-07-23T15:04:23;26.80;75.80
20416;DHT22;10367;52.202;5.996;2022-07-23T15:07:03;26.60;76.10
20416;DHT22;10367;52.202;5.996;2022-07-23T15:09:34;26.50;76.60
20416;DHT22;10367;52.202;5.996;2022-07-23T15:12:03;26.60;76.60
20416;DHT22;10367;52.202;5.996;2022-07-23T15:14:39;26.30;76.80
20416;DHT22;10367;52.202;5.996;2022-07-23T15:17:08;26.40;77.30
20416;DHT22;10367;52.202;5.996;2022-07-23T15:19:41;26.30;77.40
20416;DHT22;10367;52.202;5.996;2022-07-23T15:22:09;26.10;78.00
20416;DHT22;10367;52.202;5.996;2022-07-23T15:24:39;26.20;78.00
20416;DHT22;10367;52.202;5.996;2022-07-23T15:27:08;26.80;77.30
20416;DHT22;10367;52.202;5.996;2022-07-23T15:29:37;27.00;76.40
20416;DHT22;10367;52.202;5.996;2022-07-23T15:32:07;27.00;76.50
20416;DHT22;10367;52.202;5.996;2022-07-23T15:34:37;27.00;76.70
20416;DHT22;10367;52.202;5.996;2022-07-23T15:37:06;27.30;76.50
20416;DHT22;10367;52.202;5.996;2022-07-23T15:39:42;27.30;76.10
20416;DHT22;10367;52.202;5.996;2022-07-23T15:42:10;27.40;76.00
20416;DHT22;10367;52.202;5.996;2022-07-23T15:44:41;27.60;75.50
20416;DHT22;10367;52.202;5.996;2022-07-23T15:47:12;27.70;75.00
20416;DHT22;10367;52.202;5.996;2022-07-23T15:49:41;27.40;75.20
20416;DHT22;10367;52.202;5.996;2022-07-23T15:52:09;27.00;76.50
20416;DHT22;10367;52.202;5.996;2022-07-23T15:54:39;26.60;76.70
20416;DHT22;10367;52.202;5.996;2022-07-23T15:57:09;26.30;77.30
20416;DHT22;10367;52.202;5.996;2022-07-23T15:59:38;26.10;77.70